createdAt,value
2018-12-05T00:00:23.037Z,97832.92
2018-12-05T00:02:52.174Z,97836.48
2018-12-05T00:05:21.998Z,97836.28
2018-12-05T00:07:51.987Z,97847.73
2018-12-05T00:10:21.900Z,97844.94
2018-12-05T00:12:51.991Z,97839.30
2018-12-05T00:15:22.165Z,97841.36
2018-12-05T00:17:51.999Z,97828.63
2018-12-05T00:20:22.062Z,97836.09
2018-12-05T00:22:52.120Z,97832.58
2018-12-05T00:25:22.172Z,97837.28
2018-12-05T00:27:52.107Z,97832.92
2018-12-05T00:30:22.148Z,97829.30
2018-12-05T00:32:52.188Z,97824.00
2018-12-05T00:35:22.151Z,97827.00
2018-12-05T00:37:52.738Z,97832.64
2018-12-05T00:40:22.122Z,97827.63
2018-12-05T00:42:52.221Z,97832.57
2018-12-05T00:45:22.184Z,97836.58
2018-12-05T00:47:52.222Z,97835.00
2018-12-05T00:50:22.228Z,97850.67
2018-12-05T00:52:52.404Z,97855.86
2018-12-05T00:55:22.286Z,97864.03
2018-12-05T00:57:52.368Z,97858.36
2018-12-05T01:00:22.257Z,97852.25
2018-12-05T01:02:52.312Z,97849.36
2018-12-05T01:05:22.389Z,97852.25
2018-12-05T01:07:52.516Z,97860.09
2018-12-05T01:10:22.584Z,97859.45
2018-12-05T01:12:52.447Z,97850.83
2018-12-05T01:15:22.459Z,97859.91
2018-12-05T01:17:52.568Z,97856.49
2018-12-05T01:20:22.642Z,97864.39
2018-12-05T01:22:52.531Z,97856.80
2018-12-05T01:25:22.564Z,97850.53
2018-12-05T01:27:52.617Z,97852.24
2018-12-05T01:30:22.643Z,97854.60
2018-12-05T01:32:52.637Z,97862.73
2018-12-05T01:35:22.817Z,97861.02
2018-12-05T01:37:52.722Z,97861.02
2018-12-05T01:40:22.669Z,97860.08
2018-12-05T01:42:52.801Z,97864.30
2018-12-05T01:45:22.766Z,97858.25
2018-12-05T01:47:52.855Z,97863.91
2018-12-05T01:50:22.811Z,97869.16
2018-12-05T01:52:52.902Z,97866.65
2018-12-05T01:55:23.210Z,97861.30
2018-12-05T01:57:53.099Z,97857.69
2018-12-05T02:00:23.110Z,97856.74
2018-12-05T02:02:52.237Z,97864.11
2018-12-05T02:05:21.344Z,97846.72
2018-12-05T02:07:50.444Z,97849.38
2018-12-05T02:10:19.580Z,97848.77
2018-12-05T02:12:48.737Z,97848.31
2018-12-05T02:15:17.894Z,97859.28
2018-12-05T02:17:47.051Z,97859.73
2018-12-05T02:20:16.283Z,97867.11
2018-12-05T02:22:45.394Z,97877.59
2018-12-05T02:25:14.691Z,97871.33
2018-12-05T02:27:43.816Z,97870.94
2018-12-05T02:30:13.070Z,97876.03
2018-12-05T02:32:42.441Z,97868.20
2018-12-05T02:35:11.542Z,97863.04
2018-12-05T02:37:40.696Z,97854.39
2018-12-05T02:40:09.813Z,97848.54
2018-12-05T02:42:38.955Z,97850.17
2018-12-05T02:45:08.237Z,97850.86
2018-12-05T02:47:37.355Z,97834.91
2018-12-05T02:50:06.603Z,97834.50
2018-12-05T02:52:35.815Z,97839.36
2018-12-05T02:55:05.052Z,97844.33
2018-12-05T02:57:34.182Z,97846.22
2018-12-05T03:00:03.429Z,97853.25
2018-12-05T03:02:32.522Z,97852.30
2018-12-05T03:05:01.694Z,97853.25
2018-12-05T03:07:30.852Z,97846.22
2018-12-05T03:09:59.996Z,97854.05
2018-12-05T03:12:29.102Z,97862.43
2018-12-05T03:15:30.107Z,97865.09
2018-12-05T03:17:59.311Z,97866.99
2018-12-05T03:20:28.436Z,97865.47
2018-12-05T03:22:57.582Z,97865.86
2018-12-05T03:25:26.744Z,97873.30
2018-12-05T03:27:55.873Z,97869.95
2018-12-05T03:30:25.069Z,97866.41
2018-12-05T03:32:54.246Z,97856.81
2018-12-05T03:35:29.128Z,97858.48
2018-12-05T03:37:58.218Z,97859.23
2018-12-05T03:40:27.425Z,97856.35
2018-12-05T03:42:56.671Z,97851.64
2018-12-05T03:45:25.978Z,97849.14
2018-12-05T03:47:55.109Z,97849.94
2018-12-05T03:50:24.328Z,97848.98
2018-12-05T03:52:53.900Z,97849.94
2018-12-05T03:55:23.952Z,97849.74
2018-12-05T03:57:53.966Z,97852.09
2018-12-05T04:00:23.937Z,97853.84
2018-12-05T04:02:54.024Z,97857.10
2018-12-05T04:05:24.042Z,97854.75
2018-12-05T04:07:54.120Z,97851.33
2018-12-05T04:10:24.098Z,97846.56
2018-12-05T04:12:54.153Z,97843.48
2018-12-05T04:15:25.476Z,97844.58
2018-12-05T04:17:54.629Z,97843.09
2018-12-05T04:20:24.143Z,97833.90
2018-12-05T04:22:54.218Z,97838.38
2018-12-05T04:25:24.205Z,97841.27
2018-12-05T04:27:54.495Z,97842.67
2018-12-05T04:30:24.359Z,97846.32
2018-12-05T04:32:54.237Z,97841.77
2018-12-05T04:35:24.271Z,97844.42
2018-12-05T04:37:54.281Z,97847.38
2018-12-05T04:40:24.285Z,97843.91
2018-12-05T04:42:54.308Z,97840.30
2018-12-05T04:45:24.444Z,97832.90
2018-12-05T04:47:54.433Z,97835.73
2018-12-05T04:50:24.477Z,97841.56
2018-12-05T04:52:54.392Z,97840.99
2018-12-05T04:55:24.441Z,97844.88
2018-12-05T04:57:54.494Z,97849.52
2018-12-05T05:00:24.475Z,97853.70
2018-12-05T05:02:54.606Z,97852.01
2018-12-05T05:05:24.557Z,97854.30
2018-12-05T05:07:54.536Z,97854.45
2018-12-05T05:10:24.694Z,97859.23
2018-12-05T05:12:54.677Z,97861.88
2018-12-05T05:15:24.608Z,97866.40
2018-12-05T05:17:53.687Z,97864.69
2018-12-05T05:20:22.985Z,97874.41
2018-12-05T05:22:52.081Z,97865.94
2018-12-05T05:25:21.820Z,97866.23
2018-12-05T05:27:51.269Z,97856.52
2018-12-05T05:30:20.414Z,97856.69
2018-12-05T05:32:53.095Z,97862.92
2018-12-05T05:35:22.944Z,97858.70
2018-12-05T05:37:52.031Z,97865.42
2018-12-05T05:40:21.275Z,97862.92
2018-12-05T05:42:50.416Z,97862.33
2018-12-05T05:45:19.503Z,97863.27
2018-12-05T05:47:48.673Z,97866.98
2018-12-05T05:50:17.769Z,97866.37
2018-12-05T05:52:46.890Z,97862.76
2018-12-05T05:55:16.010Z,97857.91
2018-12-05T05:57:45.146Z,97872.50
2018-12-05T06:00:14.424Z,97881.31
2018-12-05T06:02:44.048Z,97893.69
2018-12-05T06:05:13.161Z,97887.30
2018-12-05T06:07:42.266Z,97892.52
2018-12-05T06:10:11.413Z,97897.44
2018-12-05T06:12:40.550Z,97890.73
2018-12-05T06:15:09.736Z,97898.31
2018-12-05T06:17:38.790Z,97896.48
2018-12-05T06:20:08.046Z,97900.73
2018-12-05T06:22:37.115Z,97905.55
2018-12-05T06:25:06.852Z,97901.33
2018-12-05T06:27:36.894Z,97901.33
2018-12-05T06:30:06.835Z,97909.05
2018-12-05T06:32:36.103Z,97908.75
2018-12-05T06:35:05.448Z,97920.39
2018-12-05T06:37:34.633Z,97914.73
2018-12-05T06:40:03.878Z,97910.98
2018-12-05T06:42:33.012Z,97919.27
2018-12-05T06:45:02.094Z,97934.09
2018-12-05T06:47:31.233Z,97917.53
2018-12-05T06:50:00.356Z,97921.77
2018-12-05T06:52:29.556Z,97921.94
2018-12-05T06:54:59.518Z,97922.44
2018-12-05T06:57:28.668Z,97920.98
2018-12-05T06:59:58.411Z,97923.69
2018-12-05T07:02:28.473Z,97928.69
2018-12-05T07:09:57.334Z,97934.45
2018-12-05T07:12:26.714Z,97939.95
2018-12-05T07:14:56.125Z,97936.83
2018-12-05T07:17:26.352Z,97934.03
2018-12-05T07:19:55.925Z,97933.86
2018-12-05T07:22:26.194Z,97932.91
2018-12-05T07:24:55.618Z,97937.91
2018-12-05T07:27:25.228Z,97937.13
2018-12-05T07:29:54.696Z,97939.91
2018-12-05T07:32:24.792Z,97939.95
2018-12-05T07:34:54.265Z,97938.45
2018-12-05T07:37:23.723Z,97919.97
2018-12-05T07:39:54.599Z,97922.30
2018-12-05T07:42:23.920Z,97917.22
2018-12-05T07:44:55.584Z,97923.27
2018-12-05T07:47:25.073Z,97931.69
2018-12-05T07:49:54.392Z,97940.44
2018-12-05T07:52:23.918Z,97934.92
2018-12-05T07:54:53.229Z,97939.22
2018-12-05T07:57:23.265Z,97939.58
2018-12-05T07:59:52.603Z,97935.77
2018-12-05T08:02:22.195Z,97934.22
2018-12-05T08:04:51.558Z,97932.67
2018-12-05T08:07:20.990Z,97931.72
2018-12-05T08:09:52.209Z,97930.25
2018-12-05T08:12:21.584Z,97942.39
2018-12-05T08:14:51.830Z,97943.88
2018-12-05T08:17:21.282Z,97939.31
2018-12-05T08:19:50.616Z,97943.23
2018-12-05T08:22:19.984Z,97934.08
2018-12-05T08:24:49.493Z,97926.34
2018-12-05T08:27:18.953Z,97926.05
2018-12-05T08:29:48.348Z,97937.32
2018-12-05T08:32:17.703Z,97931.55
2018-12-05T08:34:48.170Z,97935.63
2018-12-05T08:37:17.497Z,97935.40
2018-12-05T08:39:48.613Z,97934.12
2018-12-05T08:42:17.912Z,97940.05
2018-12-05T08:44:48.879Z,97941.41
2018-12-05T08:47:20.805Z,97930.97
2018-12-05T08:49:50.159Z,97927.70
2018-12-05T08:52:19.632Z,97929.58
2018-12-05T08:54:52.379Z,97928.81
2018-12-05T08:57:21.805Z,97933.03
2018-12-05T08:59:51.245Z,97932.92
2018-12-05T09:02:20.569Z,97932.58
2018-12-05T09:04:51.549Z,97929.31
2018-12-05T09:07:20.915Z,97935.43
2018-12-05T09:09:52.093Z,97930.57
2018-12-05T09:12:22.246Z,97927.23
2018-12-05T09:14:51.688Z,97933.42
2018-12-05T09:17:21.841Z,97939.08
2018-12-05T09:19:51.264Z,97938.23
2018-12-05T09:22:20.536Z,97942.80
2018-12-05T09:24:49.875Z,97942.41
2018-12-05T09:27:20.982Z,97938.16
2018-12-05T09:29:51.181Z,97935.65
2018-12-05T09:32:20.603Z,97939.11
2018-12-05T09:34:49.936Z,97932.52
2018-12-05T09:37:19.272Z,97932.07
2018-12-05T09:39:51.108Z,97929.87
2018-12-05T09:42:22.244Z,97933.45
2018-12-05T09:44:51.576Z,97939.72
2018-12-05T09:47:21.793Z,97942.11
2018-12-05T09:49:51.176Z,97942.56
2018-12-05T09:52:20.560Z,97943.81
2018-12-05T09:54:49.908Z,97931.19
2018-12-05T09:57:21.184Z,97923.77
2018-12-05T09:59:50.515Z,97925.63
2018-12-05T10:02:19.847Z,97925.81
2018-12-05T10:04:51.586Z,97919.69
2018-12-05T10:07:21.553Z,97919.38
2018-12-05T10:09:52.354Z,97917.81
2018-12-05T10:12:22.583Z,97916.32
2018-12-05T10:14:54.042Z,97909.73
2018-12-05T10:17:23.393Z,97903.69
2018-12-05T10:19:52.596Z,97906.34
2018-12-05T10:22:22.655Z,97897.73
2018-12-05T10:24:51.983Z,97901.64
2018-12-05T10:27:22.055Z,97898.50
2018-12-05T10:29:51.417Z,97900.05
2018-12-05T10:32:20.828Z,97896.91
2018-12-05T10:34:50.145Z,97894.08
2018-12-05T10:37:21.152Z,97887.42
2018-12-05T10:39:50.609Z,97884.36
2018-12-05T10:42:19.975Z,97887.66
2018-12-05T10:44:51.941Z,97880.91
2018-12-05T10:47:21.347Z,97875.11
2018-12-05T10:49:50.831Z,97873.69
2018-12-05T10:52:23.643Z,97868.66
2018-12-05T10:54:53.409Z,97872.12
2018-12-05T10:57:23.889Z,97867.37
2018-12-05T10:59:54.593Z,97857.95
2018-12-05T11:02:30.146Z,97849.79
2018-12-05T11:05:08.542Z,97840.68
2018-12-05T11:07:44.832Z,97846.95
2018-12-05T11:10:19.503Z,97844.28
2018-12-05T11:12:54.021Z,97848.98
2018-12-05T11:15:28.570Z,97835.86
2018-12-05T11:18:03.249Z,97835.61
2018-12-05T11:20:39.100Z,97831.66
2018-12-05T11:23:14.631Z,97823.81
2018-12-05T11:25:48.214Z,97819.97
2018-12-05T11:28:17.698Z,97824.13
2018-12-05T11:30:49.058Z,97816.45
2018-12-05T11:33:18.569Z,97816.84
2018-12-05T11:35:50.013Z,97821.48
2018-12-05T11:38:19.363Z,97818.83
2018-12-05T11:40:48.819Z,97813.33
2018-12-05T11:43:19.873Z,97819.91
2018-12-05T11:45:50.960Z,97814.88
2018-12-05T11:48:20.434Z,97807.98
2018-12-05T11:50:49.834Z,97807.21
2018-12-05T11:53:19.956Z,97810.50
2018-12-05T11:55:49.328Z,97808.53
2018-12-05T11:58:18.789Z,97808.22
2018-12-05T12:00:49.113Z,97805.64
2018-12-05T12:03:19.306Z,97798.87
2018-12-05T12:05:50.353Z,97798.10
2018-12-05T12:08:21.383Z,97792.08
2018-12-05T12:10:52.049Z,97788.56
2018-12-05T12:13:21.392Z,97781.17
2018-12-05T12:15:50.989Z,97780.23
2018-12-05T12:18:20.397Z,97781.05
2018-12-05T12:20:49.780Z,97776.34
2018-12-05T12:23:19.307Z,97768.94
2018-12-05T12:25:48.729Z,97768.17
2018-12-05T12:28:18.310Z,97765.11
2018-12-05T12:30:47.639Z,97762.08
2018-12-05T12:33:17.955Z,97768.98
2018-12-05T12:35:47.481Z,97764.28
2018-12-05T12:38:16.951Z,97759.39
2018-12-05T12:40:46.336Z,97757.50
2018-12-05T12:43:15.840Z,97747.59
2018-12-05T12:45:45.144Z,97746.50
2018-12-05T12:48:14.469Z,97738.33
2018-12-05T12:50:43.745Z,97735.02
2018-12-05T12:53:13.043Z,97729.67
2018-12-05T12:55:42.518Z,97727.67
2018-12-05T12:58:11.891Z,97722.74
2018-12-05T13:00:42.193Z,97728.86
2018-12-05T13:03:13.044Z,97730.12
2018-12-05T13:05:42.437Z,97737.72
2018-12-05T13:08:13.442Z,97728.22
2018-12-05T13:10:44.497Z,97715.34
2018-12-05T13:13:16.865Z,97723.65
2018-12-05T13:15:47.937Z,97720.23
2018-12-05T13:18:19.695Z,97726.90
2018-12-05T13:20:49.474Z,97724.39
2018-12-05T13:23:18.975Z,97722.81
2018-12-05T13:25:48.419Z,97717.53
2018-12-05T13:28:17.784Z,97717.66
2018-12-05T13:30:48.552Z,97726.94
2018-12-05T13:33:18.667Z,97724.06
2018-12-05T13:35:48.039Z,97715.76
2018-12-05T13:38:19.242Z,97710.73
2018-12-05T13:40:48.629Z,97709.92
2018-12-05T13:43:18.909Z,97707.09
2018-12-05T13:45:48.246Z,97702.88
2018-12-05T13:48:21.268Z,97708.34
2018-12-05T13:50:51.390Z,97714.30
2018-12-05T13:53:22.656Z,97712.24
2018-12-05T13:55:52.774Z,97705.83
2018-12-05T13:58:22.119Z,97705.38
2018-12-05T14:00:51.526Z,97696.43
2018-12-05T14:03:23.621Z,97691.41
2018-12-05T14:05:53.126Z,97689.70
2018-12-05T14:08:23.331Z,97692.08
2018-12-05T14:10:56.619Z,97695.85
2018-12-05T14:13:41.463Z,97691.28
2018-12-05T14:16:11.062Z,97682.03
2018-12-05T14:18:40.513Z,97679.84
2018-12-05T14:21:09.896Z,97678.44
2018-12-05T14:23:40.148Z,97670.45
2018-12-05T14:26:11.874Z,97662.46
2018-12-05T14:28:42.895Z,97656.50
2018-12-05T14:31:12.201Z,97657.28
2018-12-05T14:33:41.535Z,97662.78
2018-12-05T14:36:10.876Z,97664.04
2018-12-05T14:38:40.291Z,97656.34
2018-12-05T14:41:09.678Z,97661.78
2018-12-05T14:43:39.089Z,97656.70
2018-12-05T14:46:08.557Z,97657.41
2018-12-05T14:48:39.761Z,97652.77
2018-12-05T14:51:09.188Z,97652.77
2018-12-05T14:53:39.274Z,97654.52
2018-12-05T14:56:08.676Z,97657.34
2018-12-05T14:58:38.084Z,97655.22
2018-12-05T15:01:10.943Z,97651.84
2018-12-05T15:03:41.087Z,97655.16
2018-12-05T15:06:11.308Z,97655.03
2018-12-05T15:08:40.619Z,97648.27
2018-12-05T15:11:10.120Z,97653.29
2018-12-05T15:13:41.273Z,97647.75
2018-12-05T15:16:10.633Z,97650.59
2018-12-05T15:18:40.269Z,97647.14
2018-12-05T15:21:09.720Z,97640.48
2018-12-05T15:23:41.233Z,97638.74
2018-12-05T15:26:11.969Z,97646.75
2018-12-05T15:28:43.069Z,97650.05
2018-12-05T15:31:12.471Z,97644.56
2018-12-05T15:33:42.623Z,97647.14
2018-12-05T15:36:12.192Z,97637.81
2018-12-05T15:38:41.548Z,97635.94
2018-12-05T15:41:11.092Z,97643.34
2018-12-05T15:43:40.476Z,97646.17
2018-12-05T15:46:11.561Z,97642.41
2018-12-05T15:48:44.403Z,97636.62
2018-12-05T15:51:14.519Z,97624.00
2018-12-05T15:53:43.982Z,97614.67
2018-12-05T15:56:14.188Z,97618.75
2018-12-05T15:58:46.210Z,97619.95
2018-12-05T16:01:15.720Z,97609.36
2018-12-05T16:03:45.186Z,97600.89
2018-12-05T16:06:15.672Z,97602.50
2018-12-05T16:08:45.215Z,97593.55
2018-12-05T16:11:15.485Z,97598.89
2018-12-05T16:13:47.378Z,97598.77
2018-12-05T16:16:18.396Z,97590.38
2018-12-05T16:18:48.678Z,97587.95
2018-12-05T16:21:19.720Z,97588.80
2018-12-05T16:23:49.811Z,97585.28
2018-12-05T16:29:01.329Z,97569.10
2018-12-05T16:31:32.398Z,97571.23
2018-12-05T16:34:01.951Z,97576.70
2018-12-05T16:36:31.504Z,97575.89
2018-12-05T16:39:01.671Z,97573.73
2018-12-05T16:41:32.308Z,97582.03
2018-12-05T16:44:02.436Z,97578.27
2018-12-05T16:46:31.812Z,97581.59
2018-12-05T16:49:01.179Z,97575.63
2018-12-05T16:51:31.345Z,97564.66
2018-12-05T16:54:00.721Z,97562.16
2018-12-05T16:56:30.058Z,97554.17
2018-12-05T16:58:59.497Z,97563.80
2018-12-05T17:01:28.836Z,97565.47
2018-12-05T17:03:59.081Z,97567.81
2018-12-05T17:06:28.411Z,97570.32
2018-12-05T17:09:01.398Z,97568.61
2018-12-05T17:11:31.014Z,97574.41
2018-12-05T17:14:00.384Z,97560.16
2018-12-05T17:16:29.764Z,97550.76
2018-12-05T17:18:59.943Z,97555.72
2018-12-05T17:21:29.359Z,97559.41
2018-12-05T17:23:59.699Z,97556.28
2018-12-05T17:26:29.139Z,97552.84
2018-12-05T17:29:00.115Z,97550.34
2018-12-05T17:31:29.507Z,97545.32
2018-12-05T17:34:00.453Z,97527.70
2018-12-05T17:36:30.645Z,97531.72
2018-12-05T17:39:00.047Z,97531.27
2018-12-05T17:41:29.515Z,97525.77
2018-12-05T17:43:59.664Z,97525.63
2018-12-05T17:46:29.064Z,97517.98
2018-12-05T17:48:59.363Z,97525.41
2018-12-05T17:51:28.857Z,97517.81
2018-12-05T17:53:58.227Z,97518.00
2018-12-05T17:56:27.600Z,97516.87
2018-12-05T17:58:59.488Z,97514.23
2018-12-05T18:01:29.554Z,97513.79
2018-12-05T18:03:59.042Z,97520.06
2018-12-05T18:06:28.418Z,97516.61
2018-12-05T18:08:57.827Z,97513.42
2018-12-05T18:11:27.968Z,97506.29
2018-12-05T18:13:57.338Z,97509.59
2018-12-05T18:16:26.818Z,97507.24
2018-12-05T18:18:57.892Z,97504.28
2018-12-05T18:21:27.317Z,97493.33
2018-12-05T18:23:56.805Z,97502.41
2018-12-05T18:26:26.206Z,97492.13
2018-12-05T18:28:55.702Z,97500.34
2018-12-05T18:31:25.980Z,97493.53
2018-12-05T18:33:55.383Z,97496.03
2018-12-05T18:36:25.230Z,97503.09
2018-12-05T18:38:54.584Z,97500.59
2018-12-05T18:41:23.975Z,97496.83
2018-12-05T18:43:53.371Z,97499.27
2018-12-05T18:46:22.754Z,97500.14
2018-12-05T18:48:52.277Z,97490.88
2018-12-05T18:51:21.699Z,97489.38
2018-12-05T18:53:51.178Z,97492.20
2018-12-05T18:56:20.573Z,97489.63
2018-12-05T18:58:52.559Z,97489.77
2018-12-05T19:01:22.772Z,97484.30
2018-12-05T19:03:54.033Z,97477.59
2018-12-05T19:06:23.379Z,97474.66
2018-12-05T19:08:52.856Z,97472.58
2018-12-05T19:11:23.361Z,97472.58
2018-12-05T19:13:58.689Z,97476.47
2018-12-05T19:16:28.150Z,97468.47
2018-12-05T19:18:57.997Z,97459.95
2018-12-05T19:21:28.140Z,97453.78
2018-12-05T19:23:58.798Z,97445.84
2018-12-05T19:26:28.201Z,97435.89
2018-12-05T19:29:00.140Z,97436.69
2018-12-05T19:31:30.346Z,97433.25
2018-12-05T19:33:59.624Z,97417.03
2018-12-05T19:36:29.901Z,97416.58
2018-12-05T19:38:59.361Z,97416.52
2018-12-05T19:41:30.552Z,97416.64
2018-12-05T19:43:59.927Z,97408.33
2018-12-05T19:46:29.302Z,97405.38
2018-12-05T19:48:59.397Z,97400.80
2018-12-05T19:51:28.850Z,97399.11
2018-12-05T19:53:58.500Z,97383.27
2018-12-05T19:56:29.757Z,97391.59
2018-12-05T19:59:00.110Z,97390.66
2018-12-05T20:01:30.201Z,97387.37
2018-12-05T20:03:59.657Z,97388.28
2018-12-05T20:06:29.952Z,97392.84
2018-12-05T20:09:00.170Z,97390.02
2018-12-05T20:14:24.748Z,97381.53
2018-12-05T20:16:56.093Z,97377.77
2018-12-05T20:19:27.633Z,97376.97
2018-12-05T20:21:57.866Z,97367.75
2018-12-05T20:24:27.253Z,97364.37
2018-12-05T20:26:56.819Z,97364.77
2018-12-05T20:29:28.125Z,97367.27
2018-12-05T20:31:57.746Z,97362.58
2018-12-05T20:34:27.278Z,97364.15
2018-12-05T20:36:58.452Z,97359.14
2018-12-05T20:39:30.651Z,97357.44
2018-12-05T20:42:04.344Z,97346.36
2018-12-05T20:44:35.371Z,97349.63
2018-12-05T20:47:05.861Z,97342.86
2018-12-05T20:49:35.473Z,97344.49
2018-12-05T20:52:05.667Z,97342.18
2018-12-05T20:54:35.194Z,97338.42
2018-12-05T20:57:07.253Z,97339.19
2018-12-05T20:59:36.756Z,97336.30
2018-12-05T21:02:08.789Z,97334.28
2018-12-05T21:04:38.263Z,97328.41
2018-12-05T21:07:07.791Z,97319.57
2018-12-05T21:09:37.294Z,97314.95
2018-12-05T21:12:06.793Z,97315.39
2018-12-05T21:14:37.841Z,97310.25
2018-12-05T21:17:09.743Z,97309.06
2018-12-05T21:19:40.432Z,97309.94
2018-12-05T21:22:10.198Z,97315.39
2018-12-05T21:24:41.353Z,97312.44
2018-12-05T21:27:11.194Z,97308.20
2018-12-05T21:29:41.163Z,97301.48
2018-12-05T21:32:10.507Z,97299.78
2018-12-05T21:34:40.032Z,97297.73
2018-12-05T21:37:10.496Z,97301.61
2018-12-05T21:39:40.184Z,97302.42
2018-12-05T21:42:12.003Z,97297.41
2018-12-05T21:44:43.901Z,97300.36
2018-12-05T21:47:13.650Z,97295.35
2018-12-05T21:49:44.595Z,97302.70
2018-12-05T21:52:14.019Z,97300.20
2018-12-05T21:54:44.087Z,97307.84
2018-12-05T21:57:13.419Z,97304.47
2018-12-05T21:59:45.413Z,97292.80
2018-12-05T22:02:15.513Z,97294.51
2018-12-05T22:04:46.213Z,97294.51
2018-12-05T22:07:15.612Z,97291.55
2018-12-05T22:09:45.025Z,97292.75
2018-12-05T22:12:14.361Z,97281.86
2018-12-05T22:14:43.694Z,97276.23
2018-12-05T22:17:14.551Z,97272.42
2018-12-05T22:19:44.024Z,97273.28
2018-12-05T22:22:15.044Z,97266.96
2018-12-05T22:24:46.097Z,97269.98
2018-12-05T22:27:15.475Z,97271.70
2018-12-05T22:29:44.951Z,97260.38
2018-12-05T22:32:14.324Z,97259.63
2018-12-05T22:34:43.627Z,97252.59
2018-12-05T22:37:13.717Z,97243.34
2018-12-05T22:39:43.251Z,97247.91
2018-12-05T22:42:12.568Z,97249.48
2018-12-05T22:44:43.543Z,97249.94
2018-12-05T22:47:12.846Z,97246.66
2018-12-05T22:49:42.929Z,97245.08
2018-12-05T22:52:12.337Z,97240.19
2018-12-05T22:54:42.347Z,97235.95
2018-12-05T22:57:15.620Z,97226.67
2018-12-05T22:59:45.774Z,97223.78
2018-12-05T23:02:15.986Z,97225.81
2018-12-05T23:04:46.147Z,97217.37
2018-12-05T23:07:17.318Z,97209.52
2018-12-05T23:09:46.767Z,97197.48
2018-12-05T23:12:16.095Z,97196.55
2018-12-05T23:14:45.361Z,97196.55
2018-12-05T23:17:14.717Z,97194.97
2018-12-05T23:19:44.191Z,97194.97
2018-12-05T23:22:13.506Z,97172.42
2018-12-05T23:24:42.814Z,97179.94
2018-12-05T23:27:12.191Z,97178.20
2018-12-05T23:29:42.525Z,97184.14
2018-12-05T23:32:12.492Z,97192.11
2018-12-05T23:34:43.597Z,97197.66
2018-12-05T23:37:13.030Z,97183.34
2018-12-05T23:39:42.523Z,97189.22
2018-12-05T23:42:13.363Z,97172.42
2018-12-05T23:44:43.551Z,97175.05
2018-12-05T23:47:13.023Z,97176.75
2018-12-05T23:49:45.192Z,97163.45
2018-12-05T23:52:14.631Z,97165.09
2018-12-05T23:54:43.934Z,97180.18
2018-12-05T23:57:14.066Z,97185.19
2018-12-05T23:59:43.355Z,97197.52
